sensor_id;sensor_type;location;lat;lon;timestamp;P1;durP1;ratioP1;P2;durP2;ratioP2
54332;SDS011;40230;41.860;21.940;2022-09-02T00:01:36;20.05;;;17.98;;
54332;SDS011;40230;41.860;21.940;2022-09-02T00:04:05;19.48;;;17.50;;
54332;SDS011;40230;41.860;21.940;2022-09-02T00:06:32;19.25;;;16.38;;
54332;SDS011;40230;41.860;21.940;2022-09-02T00:08:59;17.35;;;15.55;;
54332;SDS011;40230;41.860;21.940;2022-09-02T00:11:26;19.00;;;17.10;;
54332;SDS011;40230;41.860;21.940;2022-09-02T00:13:53;15.43;;;13.88;;
54332;SDS011;40230;41.860;21.940;2022-09-02T00:16:20;17.23;;;15.48;;
54332;SDS011;40230;41.860;21.940;2022-09-02T00:18:48;16.55;;;14.77;;
54332;SDS011;40230;41.860;21.940;2022-09-02T00:21:16;16.40;;;14.68;;
54332;SDS011;40230;41.860;21.940;2022-09-02T00:23:43;14.70;;;13.07;;
54332;SDS011;40230;41.860;21.940;2022-09-02T00:26:10;18.00;;;16.10;;
54332;SDS011;40230;41.860;21.940;2022-09-02T00:28:37;15.55;;;14.00;;
54332;SDS011;40230;41.860;21.940;2022-09-02T00:31:03;14.98;;;13.50;;
54332;SDS011;40230;41.860;21.940;2022-09-02T00:33:29;14.20;;;12.90;;
54332;SDS011;40230;41.860;21.940;2022-09-02T00:38:40;14.27;;;12.95;;
54332;SDS011;40230;41.860;21.940;2022-09-02T00:41:07;15.43;;;13.77;;
54332;SDS011;40230;41.860;21.940;2022-09-02T00:43:39;15.70;;;14.18;;
54332;SDS011;40230;41.860;21.940;2022-09-02T00:46:05;13.82;;;12.52;;
54332;SDS011;40230;41.860;21.940;2022-09-02T00:48:32;14.95;;;13.52;;
54332;SDS011;40230;41.860;21.940;2022-09-02T00:50:59;15.73;;;13.48;;
54332;SDS011;40230;41.860;21.940;2022-09-02T00:53:27;21.33;;;17.95;;
54332;SDS011;40230;41.860;21.940;2022-09-02T00:55:54;14.77;;;12.50;;
54332;SDS011;40230;41.860;21.940;2022-09-02T00:58:31;14.43;;;13.07;;
54332;SDS011;40230;41.860;21.940;2022-09-02T01:00:57;13.50;;;12.30;;
54332;SDS011;40230;41.860;21.940;2022-09-02T01:03:26;12.57;;;11.38;;
54332;SDS011;40230;41.860;21.940;2022-09-02T01:05:53;13.90;;;12.50;;
54332;SDS011;40230;41.860;21.940;2022-09-02T01:08:21;12.60;;;11.40;;
54332;SDS011;40230;41.860;21.940;2022-09-02T01:10:49;11.68;;;10.57;;
54332;SDS011;40230;41.860;21.940;2022-09-02T01:13:17;16.15;;;14.43;;
54332;SDS011;40230;41.860;21.940;2022-09-02T01:15:46;12.63;;;11.38;;
54332;SDS011;40230;41.860;21.940;2022-09-02T01:18:14;12.65;;;11.48;;
54332;SDS011;40230;41.860;21.940;2022-09-02T01:20:41;11.63;;;10.63;;
54332;SDS011;40230;41.860;21.940;2022-09-02T01:23:07;13.55;;;12.35;;
54332;SDS011;40230;41.860;21.940;2022-09-02T01:25:34;12.32;;;11.18;;
54332;SDS011;40230;41.860;21.940;2022-09-02T01:28:06;12.00;;;10.80;;
54332;SDS011;40230;41.860;21.940;2022-09-02T01:30:32;12.20;;;10.95;;
54332;SDS011;40230;41.860;21.940;2022-09-02T01:32:59;11.40;;;10.30;;
54332;SDS011;40230;41.860;21.940;2022-09-02T01:35:25;13.00;;;10.82;;
54332;SDS011;40230;41.860;21.940;2022-09-02T01:37:53;12.30;;;10.30;;
54332;SDS011;40230;41.860;21.940;2022-09-02T01:40:20;13.02;;;11.65;;
54332;SDS011;40230;41.860;21.940;2022-09-02T01:42:46;13.70;;;11.57;;
54332;SDS011;40230;41.860;21.940;2022-09-02T01:45:12;12.25;;;11.10;;
54332;SDS011;40230;41.860;21.940;2022-09-02T01:47:39;12.93;;;11.70;;
54332;SDS011;40230;41.860;21.940;2022-09-02T01:50:06;12.63;;;11.32;;
54332;SDS011;40230;41.860;21.940;2022-09-02T01:52:33;11.93;;;10.82;;
54332;SDS011;40230;41.860;21.940;2022-09-02T01:55:00;12.70;;;11.52;;
54332;SDS011;40230;41.860;21.940;2022-09-02T01:57:26;13.15;;;11.75;;
54332;SDS011;40230;41.860;21.940;2022-09-02T01:59:53;13.93;;;12.57;;
54332;SDS011;40230;41.860;21.940;2022-09-02T02:02:19;12.43;;;11.23;;
54332;SDS011;40230;41.860;21.940;2022-09-02T02:04:46;13.30;;;11.93;;
54332;SDS011;40230;41.860;21.940;2022-09-02T02:07:13;13.52;;;12.32;;
54332;SDS011;40230;41.860;21.940;2022-09-02T02:09:41;13.60;;;12.27;;
54332;SDS011;40230;41.860;21.940;2022-09-02T02:12:08;14.55;;;12.63;;
54332;SDS011;40230;41.860;21.940;2022-09-02T02:14:34;13.15;;;11.85;;
54332;SDS011;40230;41.860;21.940;2022-09-02T02:17:01;14.07;;;12.30;;
54332;SDS011;40230;41.860;21.940;2022-09-02T02:19:27;12.57;;;11.48;;
54332;SDS011;40230;41.860;21.940;2022-09-02T02:21:54;14.02;;;12.63;;
54332;SDS011;40230;41.860;21.940;2022-09-02T02:24:20;12.40;;;11.20;;
54332;SDS011;40230;41.860;21.940;2022-09-02T02:26:46;11.32;;;10.23;;
54332;SDS011;40230;41.860;21.940;2022-09-02T02:29:12;12.38;;;11.18;;
54332;SDS011;40230;41.860;21.940;2022-09-02T02:31:39;14.07;;;12.68;;
54332;SDS011;40230;41.860;21.940;2022-09-02T02:34:06;14.60;;;13.07;;
54332;SDS011;40230;41.860;21.940;2022-09-02T02:36:32;12.10;;;10.85;;
54332;SDS011;40230;41.860;21.940;2022-09-02T02:38:58;12.32;;;11.02;;
54332;SDS011;40230;41.860;21.940;2022-09-02T02:41:25;12.30;;;11.10;;
54332;SDS011;40230;41.860;21.940;2022-09-02T02:43:52;14.73;;;13.18;;
54332;SDS011;40230;41.860;21.940;2022-09-02T02:46:18;14.73;;;13.32;;
54332;SDS011;40230;41.860;21.940;2022-09-02T02:48:44;12.90;;;11.70;;
54332;SDS011;40230;41.860;21.940;2022-09-02T02:51:10;13.45;;;12.15;;
54332;SDS011;40230;41.860;21.940;2022-09-02T02:53:37;14.65;;;11.73;;
54332;SDS011;40230;41.860;21.940;2022-09-02T02:56:04;13.82;;;12.52;;
54332;SDS011;40230;41.860;21.940;2022-09-02T02:58:30;14.02;;;12.60;;
54332;SDS011;40230;41.860;21.940;2022-09-02T03:00:56;14.15;;;12.82;;
54332;SDS011;40230;41.860;21.940;2022-09-02T03:03:23;14.25;;;12.90;;
54332;SDS011;40230;41.860;21.940;2022-09-02T03:05:50;14.20;;;12.77;;
54332;SDS011;40230;41.860;21.940;2022-09-02T03:08:16;13.52;;;12.13;;
54332;SDS011;40230;41.860;21.940;2022-09-02T03:10:48;13.00;;;11.80;;
54332;SDS011;40230;41.860;21.940;2022-09-02T03:13:33;13.02;;;11.57;;
54332;SDS011;40230;41.860;21.940;2022-09-02T03:15:59;12.80;;;11.60;;
54332;SDS011;40230;41.860;21.940;2022-09-02T03:18:25;12.88;;;11.57;;
54332;SDS011;40230;41.860;21.940;2022-09-02T03:20:52;12.88;;;11.18;;
54332;SDS011;40230;41.860;21.940;2022-09-02T03:23:18;12.63;;;11.38;;
54332;SDS011;40230;41.860;21.940;2022-09-02T03:25:45;11.70;;;10.63;;
54332;SDS011;40230;41.860;21.940;2022-09-02T03:28:11;12.85;;;11.65;;
54332;SDS011;40230;41.860;21.940;2022-09-02T03:30:38;12.85;;;11.75;;
54332;SDS011;40230;41.860;21.940;2022-09-02T03:33:05;12.52;;;11.32;;
54332;SDS011;40230;41.860;21.940;2022-09-02T03:35:32;12.30;;;11.10;;
54332;SDS011;40230;41.860;21.940;2022-09-02T03:38:03;20.42;;;18.33;;
54332;SDS011;40230;41.860;21.940;2022-09-02T03:40:29;12.68;;;11.57;;
54332;SDS011;40230;41.860;21.940;2022-09-02T03:42:55;12.55;;;11.27;;
54332;SDS011;40230;41.860;21.940;2022-09-02T03:45:21;12.60;;;11.40;;
54332;SDS011;40230;41.860;21.940;2022-09-02T03:47:48;11.30;;;10.20;;
54332;SDS011;40230;41.860;21.940;2022-09-02T03:50:23;11.90;;;10.75;;
54332;SDS011;40230;41.860;21.940;2022-09-02T03:52:49;11.27;;;10.23;;
54332;SDS011;40230;41.860;21.940;2022-09-02T03:55:16;13.77;;;11.90;;
54332;SDS011;40230;41.860;21.940;2022-09-02T03:57:43;14.90;;;13.45;;
54332;SDS011;40230;41.860;21.940;2022-09-02T04:00:09;11.98;;;10.77;;
54332;SDS011;40230;41.860;21.940;2022-09-02T04:02:36;13.32;;;11.93;;
54332;SDS011;40230;41.860;21.940;2022-09-02T04:05:02;12.88;;;11.57;;
54332;SDS011;40230;41.860;21.940;2022-09-02T04:07:28;14.93;;;13.40;;
54332;SDS011;40230;41.860;21.940;2022-09-02T04:09:54;15.70;;;14.20;;
54332;SDS011;40230;41.860;21.940;2022-09-02T04:12:21;13.52;;;12.13;;
54332;SDS011;40230;41.860;21.940;2022-09-02T04:14:47;13.75;;;12.43;;
54332;SDS011;40230;41.860;21.940;2022-09-02T04:17:13;16.50;;;15.00;;
54332;SDS011;40230;41.860;21.940;2022-09-02T04:19:39;45.90;;;40.97;;
54332;SDS011;40230;41.860;21.940;2022-09-02T04:22:06;27.05;;;24.23;;
54332;SDS011;40230;41.860;21.940;2022-09-02T04:24:33;14.85;;;13.27;;
54332;SDS011;40230;41.860;21.940;2022-09-02T04:26:59;13.43;;;12.02;;
54332;SDS011;40230;41.860;21.940;2022-09-02T04:29:25;14.70;;;13.30;;
54332;SDS011;40230;41.860;21.940;2022-09-02T04:31:51;14.90;;;13.40;;
54332;SDS011;40230;41.860;21.940;2022-09-02T04:34:18;13.85;;;12.55;;
54332;SDS011;40230;41.860;21.940;2022-09-02T04:36:44;18.40;;;15.38;;
54332;SDS011;40230;41.860;21.940;2022-09-02T04:39:10;13.77;;;12.35;;
54332;SDS011;40230;41.860;21.940;2022-09-02T04:41:37;13.82;;;12.52;;
54332;SDS011;40230;41.860;21.940;2022-09-02T04:44:04;11.95;;;10.68;;
54332;SDS011;40230;41.860;21.940;2022-09-02T04:46:31;12.55;;;11.35;;
54332;SDS011;40230;41.860;21.940;2022-09-02T04:48:57;13.07;;;11.88;;
54332;SDS011;40230;41.860;21.940;2022-09-02T04:51:24;13.48;;;12.10;;
54332;SDS011;40230;41.860;21.940;2022-09-02T04:53:51;13.23;;;11.93;;
54332;SDS011;40230;41.860;21.940;2022-09-02T04:56:19;13.02;;;10.88;;
54332;SDS011;40230;41.860;21.940;2022-09-02T04:58:45;12.77;;;11.57;;
54332;SDS011;40230;41.860;21.940;2022-09-02T05:01:13;13.48;;;12.18;;
54332;SDS011;40230;41.860;21.940;2022-09-02T05:03:40;12.75;;;11.50;;
54332;SDS011;40230;41.860;21.940;2022-09-02T05:06:07;13.50;;;11.98;;
54332;SDS011;40230;41.860;21.940;2022-09-02T05:08:33;14.07;;;12.68;;
54332;SDS011;40230;41.860;21.940;2022-09-02T05:11:04;13.80;;;12.32;;
54332;SDS011;40230;41.860;21.940;2022-09-02T05:13:30;12.95;;;11.38;;
54332;SDS011;40230;41.860;21.940;2022-09-02T05:15:56;12.80;;;11.60;;
54332;SDS011;40230;41.860;21.940;2022-09-02T05:18:22;13.38;;;12.07;;
54332;SDS011;40230;41.860;21.940;2022-09-02T05:20:48;14.07;;;12.73;;
54332;SDS011;40230;41.860;21.940;2022-09-02T05:23:17;14.15;;;12.70;;
54332;SDS011;40230;41.860;21.940;2022-09-02T05:25:43;14.60;;;12.15;;
54332;SDS011;40230;41.860;21.940;2022-09-02T05:28:09;12.93;;;11.73;;
54332;SDS011;40230;41.860;21.940;2022-09-02T05:30:36;10.05;;;9.18;;
54332;SDS011;40230;41.860;21.940;2022-09-02T05:33:03;9.23;;;8.07;;
54332;SDS011;40230;41.860;21.940;2022-09-02T05:35:29;9.85;;;8.93;;
54332;SDS011;40230;41.860;21.940;2022-09-02T05:37:55;9.75;;;8.85;;
54332;SDS011;40230;41.860;21.940;2022-09-02T05:40:21;8.88;;;8.07;;
54332;SDS011;40230;41.860;21.940;2022-09-02T05:42:48;9.65;;;8.85;;
54332;SDS011;40230;41.860;21.940;2022-09-02T05:45:14;8.98;;;8.13;;
54332;SDS011;40230;41.860;21.940;2022-09-02T05:47:40;10.88;;;9.95;;
54332;SDS011;40230;41.860;21.940;2022-09-02T05:50:06;9.93;;;8.90;;
54332;SDS011;40230;41.860;21.940;2022-09-02T05:52:32;9.38;;;8.48;;
54332;SDS011;40230;41.860;21.940;2022-09-02T05:54:58;9.45;;;8.55;;
54332;SDS011;40230;41.860;21.940;2022-09-02T05:57:25;9.18;;;8.23;;
54332;SDS011;40230;41.860;21.940;2022-09-02T05:59:52;14.02;;;12.63;;
54332;SDS011;40230;41.860;21.940;2022-09-02T06:02:22;12.00;;;10.77;;
54332;SDS011;40230;41.860;21.940;2022-09-02T06:04:49;9.57;;;8.68;;
54332;SDS011;40230;41.860;21.940;2022-09-02T06:07:18;10.15;;;8.75;;
54332;SDS011;40230;41.860;21.940;2022-09-02T06:09:45;9.18;;;7.53;;
54332;SDS011;40230;41.860;21.940;2022-09-02T06:12:12;21.08;;;19.23;;
54332;SDS011;40230;41.860;21.940;2022-09-02T06:14:38;10.25;;;9.25;;
54332;SDS011;40230;41.860;21.940;2022-09-02T06:17:05;10.85;;;9.82;;
54332;SDS011;40230;41.860;21.940;2022-09-02T06:19:31;9.75;;;8.85;;
54332;SDS011;40230;41.860;21.940;2022-09-02T06:21:58;9.35;;;8.45;;
54332;SDS011;40230;41.860;21.940;2022-09-02T06:24:25;7.65;;;6.90;;
54332;SDS011;40230;41.860;21.940;2022-09-02T06:26:51;10.10;;;7.47;;
54332;SDS011;40230;41.860;21.940;2022-09-02T06:29:18;6.90;;;6.18;;
54332;SDS011;40230;41.860;21.940;2022-09-02T06:31:45;8.48;;;7.00;;
54332;SDS011;40230;41.860;21.940;2022-09-02T06:34:13;7.70;;;7.00;;
54332;SDS011;40230;41.860;21.940;2022-09-02T06:36:43;6.88;;;6.28;;
54332;SDS011;40230;41.860;21.940;2022-09-02T06:39:12;6.65;;;5.72;;
54332;SDS011;40230;41.860;21.940;2022-09-02T06:41:40;7.15;;;6.40;;
54332;SDS011;40230;41.860;21.940;2022-09-02T06:44:07;7.72;;;6.53;;
54332;SDS011;40230;41.860;21.940;2022-09-02T06:46:37;7.57;;;6.78;;
54332;SDS011;40230;41.860;21.940;2022-09-02T06:49:10;7.28;;;6.22;;
54332;SDS011;40230;41.860;21.940;2022-09-02T06:51:43;6.32;;;5.82;;
54332;SDS011;40230;41.860;21.940;2022-09-02T06:54:12;8.10;;;7.38;;
54332;SDS011;40230;41.860;21.940;2022-09-02T06:56:40;7.10;;;6.40;;
54332;SDS011;40230;41.860;21.940;2022-09-02T06:59:10;6.75;;;6.25;;
54332;SDS011;40230;41.860;21.940;2022-09-02T07:01:37;7.40;;;6.70;;
54332;SDS011;40230;41.860;21.940;2022-09-02T07:04:04;7.93;;;7.25;;
54332;SDS011;40230;41.860;21.940;2022-09-02T07:06:50;9.57;;;8.68;;
54332;SDS011;40230;41.860;21.940;2022-09-02T07:09:17;9.30;;;7.72;;
54332;SDS011;40230;41.860;21.940;2022-09-02T07:11:44;7.30;;;6.63;;
54332;SDS011;40230;41.860;21.940;2022-09-02T07:14:13;7.80;;;6.40;;
54332;SDS011;40230;41.860;21.940;2022-09-02T07:16:42;7.47;;;6.57;;
54332;SDS011;40230;41.860;21.940;2022-09-02T07:19:08;6.43;;;5.90;;
54332;SDS011;40230;41.860;21.940;2022-09-02T07:21:35;7.22;;;6.55;;
54332;SDS011;40230;41.860;21.940;2022-09-02T07:24:01;7.40;;;6.53;;
54332;SDS011;40230;41.860;21.940;2022-09-02T07:26:30;7.65;;;6.88;;
54332;SDS011;40230;41.860;21.940;2022-09-02T07:28:57;6.95;;;6.25;;
54332;SDS011;40230;41.860;21.940;2022-09-02T07:31:23;7.05;;;6.32;;
54332;SDS011;40230;41.860;21.940;2022-09-02T07:33:51;6.55;;;6.05;;
54332;SDS011;40230;41.860;21.940;2022-09-02T07:36:22;7.03;;;6.20;;
54332;SDS011;40230;41.860;21.940;2022-09-02T07:38:49;6.30;;;5.80;;
54332;SDS011;40230;41.860;21.940;2022-09-02T07:41:15;5.93;;;5.35;;
54332;SDS011;40230;41.860;21.940;2022-09-02T07:43:41;6.82;;;6.25;;
54332;SDS011;40230;41.860;21.940;2022-09-02T07:46:07;5.97;;;5.47;;
54332;SDS011;40230;41.860;21.940;2022-09-02T07:48:34;5.93;;;5.43;;
54332;SDS011;40230;41.860;21.940;2022-09-02T07:51:00;7.45;;;6.03;;
54332;SDS011;40230;41.860;21.940;2022-09-02T07:53:26;6.30;;;5.70;;
54332;SDS011;40230;41.860;21.940;2022-09-02T07:55:53;6.57;;;5.97;;
54332;SDS011;40230;41.860;21.940;2022-09-02T07:58:19;7.88;;;6.50;;
54332;SDS011;40230;41.860;21.940;2022-09-02T08:00:46;7.00;;;6.30;;
54332;SDS011;40230;41.860;21.940;2022-09-02T08:03:13;6.30;;;5.70;;
54332;SDS011;40230;41.860;21.940;2022-09-02T08:05:40;6.75;;;6.18;;
54332;SDS011;40230;41.860;21.940;2022-09-02T08:08:09;6.82;;;6.22;;
54332;SDS011;40230;41.860;21.940;2022-09-02T08:10:36;8.63;;;6.43;;
54332;SDS011;40230;41.860;21.940;2022-09-02T08:13:02;7.20;;;6.15;;
54332;SDS011;40230;41.860;21.940;2022-09-02T08:16:45;7.07;;;6.38;;
54332;SDS011;40230;41.860;21.940;2022-09-02T08:19:11;8.07;;;7.22;;
54332;SDS011;40230;41.860;21.940;2022-09-02T08:21:38;8.40;;;7.40;;
54332;SDS011;40230;41.860;21.940;2022-09-02T08:24:04;8.02;;;7.22;;
54332;SDS011;40230;41.860;21.940;2022-09-02T08:26:30;7.60;;;6.90;;
54332;SDS011;40230;41.860;21.940;2022-09-02T08:29:01;7.50;;;6.80;;
54332;SDS011;40230;41.860;21.940;2022-09-02T08:31:27;7.50;;;6.60;;
54332;SDS011;40230;41.860;21.940;2022-09-02T08:33:53;12.15;;;7.55;;
54332;SDS011;40230;41.860;21.940;2022-09-02T08:36:19;11.82;;;8.02;;
54332;SDS011;40230;41.860;21.940;2022-09-02T08:38:45;8.20;;;7.40;;
54332;SDS011;40230;41.860;21.940;2022-09-02T08:41:22;8.80;;;8.00;;
54332;SDS011;40230;41.860;21.940;2022-09-02T08:43:49;8.63;;;7.93;;
54332;SDS011;40230;41.860;21.940;2022-09-02T08:46:16;8.85;;;6.90;;
54332;SDS011;40230;41.860;21.940;2022-09-02T08:48:59;8.98;;;7.53;;
54332;SDS011;40230;41.860;21.940;2022-09-02T08:56:41;6.63;;;6.03;;
54332;SDS011;40230;41.860;21.940;2022-09-02T08:59:08;6.70;;;6.10;;
54332;SDS011;40230;41.860;21.940;2022-09-02T09:04:09;8.52;;;7.28;;
54332;SDS011;40230;41.860;21.940;2022-09-02T09:11:57;10.23;;;8.55;;
54332;SDS011;40230;41.860;21.940;2022-09-02T09:14:29;80.82;;;72.45;;
54332;SDS011;40230;41.860;21.940;2022-09-02T09:16:58;79.00;;;70.63;;
54332;SDS011;40230;41.860;21.940;2022-09-02T09:19:32;85.15;;;73.10;;
54332;SDS011;40230;41.860;21.940;2022-09-02T09:22:01;109.18;;;96.93;;
54332;SDS011;40230;41.860;21.940;2022-09-02T09:27:13;28.25;;;25.42;;
54332;SDS011;40230;41.860;21.940;2022-09-02T09:29:39;14.00;;;12.60;;
54332;SDS011;40230;41.860;21.940;2022-09-02T09:32:11;14.38;;;12.77;;
54332;SDS011;40230;41.860;21.940;2022-09-02T09:37:45;9.82;;;8.93;;
54332;SDS011;40230;41.860;21.940;2022-09-02T09:43:15;9.70;;;8.80;;
54332;SDS011;40230;41.860;21.940;2022-09-02T09:45:42;9.93;;;8.95;;
54332;SDS011;40230;41.860;21.940;2022-09-02T09:50:35;10.45;;;9.30;;
54332;SDS011;40230;41.860;21.940;2022-09-02T09:58:15;9.15;;;8.35;;
54332;SDS011;40230;41.860;21.940;2022-09-02T10:00:42;10.10;;;9.00;;
54332;SDS011;40230;41.860;21.940;2022-09-02T10:03:08;10.43;;;8.60;;
54332;SDS011;40230;41.860;21.940;2022-09-02T10:05:43;11.13;;;10.05;;
54332;SDS011;40230;41.860;21.940;2022-09-02T10:10:59;10.07;;;9.07;;
54332;SDS011;40230;41.860;21.940;2022-09-02T10:13:27;11.48;;;10.38;;
54332;SDS011;40230;41.860;21.940;2022-09-02T10:26:40;10.63;;;9.63;;
54332;SDS011;40230;41.860;21.940;2022-09-02T10:37:17;10.45;;;9.45;;
54332;SDS011;40230;41.860;21.940;2022-09-02T10:42:30;10.50;;;9.50;;
54332;SDS011;40230;41.860;21.940;2022-09-02T10:47:58;10.93;;;9.82;;
54332;SDS011;40230;41.860;21.940;2022-09-02T10:50:47;10.45;;;9.52;;
54332;SDS011;40230;41.860;21.940;2022-09-02T11:01:07;11.57;;;10.55;;
54332;SDS011;40230;41.860;21.940;2022-09-02T11:06:10;11.60;;;10.52;;
54332;SDS011;40230;41.860;21.940;2022-09-02T11:11:09;11.30;;;10.32;;
54332;SDS011;40230;41.860;21.940;2022-09-02T11:16:26;11.43;;;10.32;;
54332;SDS011;40230;41.860;21.940;2022-09-02T11:21:42;17.90;;;11.20;;
54332;SDS011;40230;41.860;21.940;2022-09-02T11:24:16;10.90;;;9.88;;
54332;SDS011;40230;41.860;21.940;2022-09-02T11:34:50;10.98;;;9.88;;
54332;SDS011;40230;41.860;21.940;2022-09-02T11:40:03;12.50;;;11.20;;
54332;SDS011;40230;41.860;21.940;2022-09-02T11:42:35;11.60;;;10.50;;
54332;SDS011;40230;41.860;21.940;2022-09-02T11:47:54;14.15;;;12.70;;
54332;SDS011;40230;41.860;21.940;2022-09-02T11:58:28;12.48;;;11.48;;
54332;SDS011;40230;41.860;21.940;2022-09-02T12:03:25;11.73;;;10.63;;
54332;SDS011;40230;41.860;21.940;2022-09-02T12:06:07;11.05;;;9.95;;
54332;SDS011;40230;41.860;21.940;2022-09-02T12:11:07;10.68;;;9.73;;
54332;SDS011;40230;41.860;21.940;2022-09-02T12:21:22;10.65;;;9.70;;
54332;SDS011;40230;41.860;21.940;2022-09-02T12:26:15;11.93;;;10.48;;
54332;SDS011;40230;41.860;21.940;2022-09-02T12:28:41;11.40;;;10.40;;
54332;SDS011;40230;41.860;21.940;2022-09-02T12:31:11;11.88;;;10.88;;
54332;SDS011;40230;41.860;21.940;2022-09-02T12:33:43;10.77;;;9.70;;
54332;SDS011;40230;41.860;21.940;2022-09-02T12:39:05;11.50;;;10.45;;
54332;SDS011;40230;41.860;21.940;2022-09-02T12:41:41;11.32;;;10.25;;
54332;SDS011;40230;41.860;21.940;2022-09-02T12:51:55;11.43;;;10.30;;
54332;SDS011;40230;41.860;21.940;2022-09-02T12:54:35;10.80;;;9.80;;
54332;SDS011;40230;41.860;21.940;2022-09-02T12:57:05;11.77;;;10.65;;
54332;SDS011;40230;41.860;21.940;2022-09-02T12:59:36;11.57;;;10.55;;
54332;SDS011;40230;41.860;21.940;2022-09-02T13:07:16;10.65;;;9.73;;
54332;SDS011;40230;41.860;21.940;2022-09-02T13:32:35;12.80;;;11.70;;
54332;SDS011;40230;41.860;21.940;2022-09-02T13:35:03;11.85;;;10.57;;
54332;SDS011;40230;41.860;21.940;2022-09-02T13:37:35;12.27;;;11.27;;
54332;SDS011;40230;41.860;21.940;2022-09-02T13:40:43;12.07;;;10.95;;
54332;SDS011;40230;41.860;21.940;2022-09-02T13:42:52;11.85;;;10.77;;
54332;SDS011;40230;41.860;21.940;2022-09-02T13:45:19;10.98;;;9.98;;
54332;SDS011;40230;41.860;21.940;2022-09-02T13:47:47;12.85;;;11.57;;
54332;SDS011;40230;41.860;21.940;2022-09-02T13:50:16;12.38;;;11.05;;
54332;SDS011;40230;41.860;21.940;2022-09-02T13:52:43;12.13;;;11.02;;
54332;SDS011;40230;41.860;21.940;2022-09-02T13:55:12;11.07;;;9.95;;
54332;SDS011;40230;41.860;21.940;2022-09-02T13:57:41;11.07;;;10.05;;
54332;SDS011;40230;41.860;21.940;2022-09-02T14:00:09;11.68;;;10.57;;
54332;SDS011;40230;41.860;21.940;2022-09-02T14:02:37;12.85;;;11.60;;
54332;SDS011;40230;41.860;21.940;2022-09-02T14:07:40;12.10;;;10.93;;
54332;SDS011;40230;41.860;21.940;2022-09-02T14:10:08;10.07;;;9.13;;
54332;SDS011;40230;41.860;21.940;2022-09-02T14:12:35;10.38;;;7.38;;
54332;SDS011;40230;41.860;21.940;2022-09-02T14:15:02;7.97;;;6.35;;
54332;SDS011;40230;41.860;21.940;2022-09-02T14:17:30;9.52;;;7.82;;
54332;SDS011;40230;41.860;21.940;2022-09-02T14:22:34;7.88;;;7.18;;
54332;SDS011;40230;41.860;21.940;2022-09-02T14:27:49;8.27;;;7.20;;
54332;SDS011;40230;41.860;21.940;2022-09-02T14:33:14;9.90;;;8.90;;
54332;SDS011;40230;41.860;21.940;2022-09-02T14:35:37;11.48;;;9.95;;
54332;SDS011;40230;41.860;21.940;2022-09-02T14:38:03;13.15;;;10.32;;
54332;SDS011;40230;41.860;21.940;2022-09-02T14:40:33;15.35;;;11.77;;
54332;SDS011;40230;41.860;21.940;2022-09-02T14:43:02;19.27;;;16.30;;
54332;SDS011;40230;41.860;21.940;2022-09-02T14:45:29;15.35;;;11.32;;
54332;SDS011;40230;41.860;21.940;2022-09-02T14:47:57;48.78;;;43.05;;
54332;SDS011;40230;41.860;21.940;2022-09-02T14:50:31;47.63;;;42.58;;
54332;SDS011;40230;41.860;21.940;2022-09-02T14:53:02;15.02;;;13.63;;
54332;SDS011;40230;41.860;21.940;2022-09-02T14:58:16;14.57;;;13.10;;
54332;SDS011;40230;41.860;21.940;2022-09-02T15:00:52;14.05;;;12.55;;
54332;SDS011;40230;41.860;21.940;2022-09-02T15:03:22;12.95;;;11.70;;
54332;SDS011;40230;41.860;21.940;2022-09-02T15:05:48;13.52;;;11.90;;
54332;SDS011;40230;41.860;21.940;2022-09-02T15:08:16;13.90;;;12.48;;
54332;SDS011;40230;41.860;21.940;2022-09-02T15:10:42;13.57;;;12.27;;
54332;SDS011;40230;41.860;21.940;2022-09-02T15:13:10;16.15;;;14.52;;
54332;SDS011;40230;41.860;21.940;2022-09-02T15:15:37;25.52;;;23.17;;
54332;SDS011;40230;41.860;21.940;2022-09-02T15:18:03;16.88;;;15.38;;
54332;SDS011;40230;41.860;21.940;2022-09-02T15:20:30;12.43;;;11.18;;
54332;SDS011;40230;41.860;21.940;2022-09-02T15:22:56;13.68;;;12.27;;
54332;SDS011;40230;41.860;21.940;2022-09-02T15:25:23;13.77;;;12.38;;
54332;SDS011;40230;41.860;21.940;2022-09-02T15:27:49;14.23;;;12.73;;
54332;SDS011;40230;41.860;21.940;2022-09-02T15:30:15;14.85;;;13.45;;
54332;SDS011;40230;41.860;21.940;2022-09-02T15:32:42;15.55;;;13.40;;
54332;SDS011;40230;41.860;21.940;2022-09-02T15:35:09;14.65;;;13.15;;
54332;SDS011;40230;41.860;21.940;2022-09-02T15:37:35;14.90;;;13.13;;
54332;SDS011;40230;41.860;21.940;2022-09-02T15:40:04;15.18;;;12.60;;
54332;SDS011;40230;41.860;21.940;2022-09-02T15:45:17;14.00;;;12.65;;
54332;SDS011;40230;41.860;21.940;2022-09-02T15:47:44;13.27;;;12.07;;
54332;SDS011;40230;41.860;21.940;2022-09-02T15:50:10;13.70;;;12.40;;
54332;SDS011;40230;41.860;21.940;2022-09-02T15:52:37;14.77;;;13.38;;
54332;SDS011;40230;41.860;21.940;2022-09-02T15:55:04;13.05;;;11.95;;
54332;SDS011;40230;41.860;21.940;2022-09-02T15:57:32;13.63;;;12.20;;
54332;SDS011;40230;41.860;21.940;2022-09-02T15:59:58;12.98;;;11.77;;
54332;SDS011;40230;41.860;21.940;2022-09-02T16:02:24;12.93;;;11.73;;
54332;SDS011;40230;41.860;21.940;2022-09-02T16:04:51;13.73;;;12.38;;
54332;SDS011;40230;41.860;21.940;2022-09-02T16:07:18;15.02;;;13.50;;
54332;SDS011;40230;41.860;21.940;2022-09-02T16:09:45;14.75;;;13.25;;
54332;SDS011;40230;41.860;21.940;2022-09-02T16:12:11;16.00;;;14.45;;
54332;SDS011;40230;41.860;21.940;2022-09-02T16:14:37;15.98;;;14.38;;
54332;SDS011;40230;41.860;21.940;2022-09-02T16:17:03;13.50;;;12.10;;
54332;SDS011;40230;41.860;21.940;2022-09-02T16:19:29;15.18;;;12.05;;
54332;SDS011;40230;41.860;21.940;2022-09-02T16:21:56;14.90;;;13.40;;
54332;SDS011;40230;41.860;21.940;2022-09-02T16:24:22;15.55;;;13.88;;
54332;SDS011;40230;41.860;21.940;2022-09-02T16:26:48;15.40;;;13.90;;
54332;SDS011;40230;41.860;21.940;2022-09-02T16:29:15;14.10;;;12.52;;
54332;SDS011;40230;41.860;21.940;2022-09-02T16:31:42;14.55;;;13.13;;
54332;SDS011;40230;41.860;21.940;2022-09-02T16:34:10;12.93;;;11.65;;
54332;SDS011;40230;41.860;21.940;2022-09-02T16:36:37;13.55;;;11.05;;
54332;SDS011;40230;41.860;21.940;2022-09-02T16:39:04;12.27;;;10.93;;
54332;SDS011;40230;41.860;21.940;2022-09-02T16:41:32;12.48;;;11.07;;
54332;SDS011;40230;41.860;21.940;2022-09-02T16:43:59;10.77;;;9.25;;
54332;SDS011;40230;41.860;21.940;2022-09-02T16:46:26;14.43;;;10.88;;
54332;SDS011;40230;41.860;21.940;2022-09-02T16:48:52;10.93;;;9.75;;
54332;SDS011;40230;41.860;21.940;2022-09-02T16:51:22;11.23;;;10.05;;
54332;SDS011;40230;41.860;21.940;2022-09-02T16:53:51;11.50;;;10.30;;
54332;SDS011;40230;41.860;21.940;2022-09-02T16:56:19;11.90;;;10.70;;
54332;SDS011;40230;41.860;21.940;2022-09-02T16:58:49;12.63;;;11.35;;
54332;SDS011;40230;41.860;21.940;2022-09-02T17:01:16;10.70;;;9.60;;
54332;SDS011;40230;41.860;21.940;2022-09-02T17:03:43;12.55;;;11.23;;
54332;SDS011;40230;41.860;21.940;2022-09-02T17:06:10;11.32;;;10.20;;
54332;SDS011;40230;41.860;21.940;2022-09-02T17:08:37;11.85;;;10.65;;
54332;SDS011;40230;41.860;21.940;2022-09-02T17:13:42;11.45;;;10.25;;